Time;durP1;ratioP1;P1;durP2;ratioP2;P2;SDS_P1;SDS_P2;PMS_P1;PMS_P2;Temp;Humidity;BMP_temperature;BMP_pressure;BME280_temperature;BME280_humidity;BME280_pressure;Samples;Min_cycle;Max_cycle;Signal;HPM_P1;HPM_P2
2023/06/11 00:01:49;;;;;;;20.52;9.68;;;;;;;19.37;75.41;101284.09;5076273;28;20040;-80
2023/06/11 00:04:19;;;;;;;20.45;11.23;;;;;;;19.35;75.79;101288.88;5062580;28;20042;-80
2023/06/11 00:06:45;;;;;;;19.63;9.45;;;;;;;19.30;75.07;101283.06;5081637;28;20040;-80
2023/06/11 00:09:11;;;;;;;22.58;11.23;;;;;;;19.30;75.85;101280.31;5077327;28;20047;-80
2023/06/11 00:11:41;;;;;;;21.08;10.68;;;;;;;19.28;75.93;101279.63;5064004;28;20028;-80
2023/06/11 00:14:10;;;;;;;22.60;10.60;;;;;;;19.26;76.58;101281.66;5058714;28;20116;-80
2023/06/11 00:16:36;;;;;;;20.45;10.75;;;;;;;19.24;76.47;101278.22;5079596;28;20048;-80
2023/06/11 00:19:03;;;;;;;25.92;12.68;;;;;;;19.19;76.67;101279.53;5066022;28;20146;-80
2023/06/11 00:21:29;;;;;;;20.40;10.77;;;;;;;19.17;75.23;101278.84;5075190;28;20484;-80
2023/06/11 00:23:55;;;;;;;24.27;11.90;;;;;;;19.15;78.40;101275.44;5073451;28;20359;-80
2023/06/11 00:26:20;;;;;;;21.15;10.85;;;;;;;19.12;77.19;101270.31;5078700;28;20089;-79
2023/06/11 00:28:46;;;;;;;21.50;10.60;;;;;;;19.09;77.38;101269.75;5059813;28;20040;-80
2023/06/11 00:31:11;;;;;;;22.65;11.60;;;;;;;19.04;76.37;101268.38;5063442;28;20028;-80
2023/06/11 00:33:36;;;;;;;20.85;11.75;;;;;;;19.01;78.74;101267.84;5064321;28;20484;-80
2023/06/11 00:36:02;;;;;;;19.95;11.75;;;;;;;18.99;78.57;101258.94;5082436;28;20480;-80
2023/06/11 00:38:28;;;;;;;21.85;11.38;;;;;;;18.98;79.23;101273.59;5088781;28;20031;-80
2023/06/11 00:40:53;;;;;;;22.42;11.70;;;;;;;18.96;79.02;101264.72;5075283;28;20035;-80
2023/06/11 00:43:23;;;;;;;21.30;10.70;;;;;;;18.93;78.54;101265.91;5057662;28;20438;-80
2023/06/11 00:45:50;;;;;;;22.48;13.10;;;;;;;18.90;79.60;101262.63;5065796;28;20035;-80
2023/06/11 00:48:19;;;;;;;20.88;12.02;;;;;;;18.87;77.77;101255.63;5084244;28;20036;-80
2023/06/11 00:50:47;;;;;;;22.05;12.07;;;;;;;18.86;77.81;101262.94;5065931;28;20385;-80
2023/06/11 00:53:12;;;;;;;22.08;12.23;;;;;;;18.82;79.34;101269.69;5057141;28;20027;-80
2023/06/11 00:55:38;;;;;;;21.15;11.63;;;;;;;18.79;79.25;101264.56;5079901;28;20024;-80
2023/06/11 00:58:04;;;;;;;22.27;11.82;;;;;;;18.77;79.16;101269.31;5081521;28;20556;-80
2023/06/11 01:00:30;;;;;;;21.20;11.32;;;;;;;18.73;79.94;101269.75;5066977;28;20024;-81
2023/06/11 01:03:05;;;;;;;22.80;11.95;;;;;;;18.70;80.77;101270.94;5083075;28;20043;-78
2023/06/11 01:05:36;;;;;;;22.50;12.05;;;;;;;18.64;80.66;101271.56;5084716;28;20065;-80
2023/06/11 01:08:04;;;;;;;20.13;11.35;;;;;;;18.57;81.49;101265.88;5091713;28;20031;-78
2023/06/11 01:10:29;;;;;;;23.33;12.68;;;;;;;18.54;81.63;101268.91;5103020;28;20100;-79
2023/06/11 01:12:54;;;;;;;21.98;12.82;;;;;;;18.53;81.31;101269.91;5085037;28;20024;-78
2023/06/11 01:15:20;;;;;;;22.83;12.15;;;;;;;18.50;81.78;101270.22;5085533;28;20024;-78
2023/06/11 01:17:54;;;;;;;22.40;13.27;;;;;;;18.46;81.69;101271.53;5093808;28;20036;-78
2023/06/11 01:20:35;;;;;;;23.17;13.55;;;;;;;18.41;81.48;101272.00;5097738;28;20028;-78
2023/06/11 01:23:34;;;;;;;25.13;13.52;;;;;;;18.39;81.43;101267.72;5107353;28;20095;-78
2023/06/11 01:26:12;;;;;;;21.02;11.45;;;;;;;18.32;83.52;101267.50;5087834;28;20017;-78
2023/06/11 01:28:38;;;;;;;22.23;13.23;;;;;;;18.26;82.94;101268.06;5112100;28;20033;-78
2023/06/11 01:31:14;;;;;;;22.05;12.52;;;;;;;18.24;83.61;101270.94;5100135;28;20037;-78
2023/06/11 01:33:41;;;;;;;24.90;13.88;;;;;;;18.21;83.59;101264.97;5073703;28;20031;-78
2023/06/11 01:36:06;;;;;;;22.48;12.98;;;;;;;18.18;82.61;101271.56;5083417;28;20020;-80
2023/06/11 01:38:41;;;;;;;22.73;13.73;;;;;;;18.15;83.86;101267.28;5084219;22;20470;-74
2023/06/11 01:41:11;;;;;;;23.85;13.73;;;;;;;18.12;83.68;101273.03;5028367;28;20025;-74
2023/06/11 01:43:36;;;;;;;21.90;13.15;;;;;;;18.08;82.87;101274.38;5046167;28;20025;-74
2023/06/11 01:46:03;;;;;;;22.38;13.02;;;;;;;18.09;84.05;101269.75;5024956;28;20495;-74
2023/06/11 01:48:28;;;;;;;21.90;12.80;;;;;;;18.08;84.96;101270.75;5040914;28;20087;-74
2023/06/11 01:50:54;;;;;;;22.85;13.25;;;;;;;18.05;84.52;101273.78;5033063;28;20048;-74
2023/06/11 01:53:19;;;;;;;25.10;14.20;;;;;;;18.03;85.27;101271.22;5044383;28;20167;-74
2023/06/11 01:55:45;;;;;;;23.02;13.15;;;;;;;17.98;85.59;101276.28;5041745;28;20434;-74
2023/06/11 01:58:11;;;;;;;22.45;13.40;;;;;;;17.98;84.34;101279.84;5047102;28;20520;-74
2023/06/11 02:00:36;;;;;;;23.63;14.13;;;;;;;17.94;84.77;101270.25;5021614;28;20465;-74
2023/06/11 02:03:04;;;;;;;23.40;14.10;;;;;;;17.95;84.82;101272.00;5049580;28;20099;-74
2023/06/11 02:05:30;;;;;;;22.20;13.20;;;;;;;17.97;85.39;101277.28;5051362;28;20384;-74
2023/06/11 02:07:55;;;;;;;23.27;13.60;;;;;;;17.94;84.61;101277.56;5030526;28;20079;-74
2023/06/11 02:10:20;;;;;;;24.55;15.13;;;;;;;17.94;84.37;101275.72;5045828;28;20082;-74
2023/06/11 02:12:46;;;;;;;24.48;14.40;;;;;;;17.93;86.13;101282.13;5051167;28;20568;-74
2023/06/11 02:15:11;;;;;;;27.65;14.48;;;;;;;17.96;84.27;101279.13;5034083;28;20028;-74
2023/06/11 02:17:37;;;;;;;25.83;14.13;;;;;;;17.95;85.48;101276.56;5030818;28;20025;-74
2023/06/11 02:20:05;;;;;;;24.80;14.43;;;;;;;17.92;84.97;101285.88;5033890;28;20129;-74
2023/06/11 02:22:32;;;;;;;25.65;14.68;;;;;;;17.93;84.63;101281.28;5050078;28;20392;-74
2023/06/11 02:24:57;;;;;;;23.98;14.80;;;;;;;17.92;86.72;101276.84;5047636;28;20503;-74
2023/06/11 02:27:23;;;;;;;25.48;14.60;;;;;;;17.93;84.69;101284.00;5032809;28;20041;-74
2023/06/11 02:29:48;;;;;;;23.30;14.68;;;;;;;17.92;84.82;101277.72;5025501;28;20033;-74
2023/06/11 02:32:13;;;;;;;27.35;15.18;;;;;;;17.90;84.81;101277.00;5050932;28;20025;-74
2023/06/11 02:34:38;;;;;;;24.42;14.45;;;;;;;17.90;85.59;101284.31;5050379;28;20033;-74
2023/06/11 02:37:04;;;;;;;25.90;14.88;;;;;;;17.87;85.98;101282.72;5032565;28;20036;-74
2023/06/11 02:39:29;;;;;;;26.83;15.07;;;;;;;17.81;85.91;101278.72;5029563;28;20056;-74
2023/06/11 02:41:55;;;;;;;24.90;14.82;;;;;;;17.79;86.04;101280.75;5029126;28;20517;-74
2023/06/11 02:44:21;;;;;;;25.52;15.57;;;;;;;17.78;86.03;101281.75;5033184;28;20053;-74
2023/06/11 02:46:46;;;;;;;25.00;15.20;;;;;;;17.73;86.96;101275.91;5033475;28;20090;-74
2023/06/11 02:49:12;;;;;;;25.83;15.85;;;;;;;17.71;86.59;101271.63;5034896;28;20053;-74
2023/06/11 02:51:37;;;;;;;27.95;16.27;;;;;;;17.68;86.93;101278.22;5035427;28;20024;-74
2023/06/11 02:54:03;;;;;;;23.33;14.52;;;;;;;17.65;86.93;101281.22;5035154;28;20033;-74
2023/06/11 02:56:29;;;;;;;23.75;14.45;;;;;;;17.61;87.30;101272.53;5034066;28;20032;-74
2023/06/11 02:58:54;;;;;;;26.38;15.45;;;;;;;17.57;87.62;101281.09;5028507;28;20381;-73
2023/06/11 03:01:19;;;;;;;24.27;15.55;;;;;;;17.52;88.10;101276.13;5034939;28;20481;-74
2023/06/11 03:03:45;;;;;;;24.60;16.10;;;;;;;17.49;88.56;101281.00;5032831;28;20047;-74
2023/06/11 03:06:10;;;;;;;26.10;15.95;;;;;;;17.44;88.67;101279.56;5034721;28;20025;-74
2023/06/11 03:08:35;;;;;;;24.38;15.30;;;;;;;17.41;88.76;101276.28;5033081;28;20043;-74
2023/06/11 03:11:00;;;;;;;24.58;15.27;;;;;;;17.38;88.57;101272.03;5034766;28;20059;-74
2023/06/11 03:13:26;;;;;;;25.13;15.90;;;;;;;17.33;89.32;101277.03;5020158;28;20068;-74
2023/06/11 03:15:55;;;;;;;26.85;15.98;;;;;;;17.30;89.04;101278.16;5033734;28;20071;-74
2023/06/11 03:18:20;;;;;;;24.27;15.55;;;;;;;17.27;89.16;101281.19;5034720;28;20029;-74
2023/06/11 03:20:45;;;;;;;24.73;16.25;;;;;;;17.24;89.98;101283.34;5033444;28;20175;-74
2023/06/11 03:23:11;;;;;;;24.50;16.40;;;;;;;17.20;90.74;101281.91;5025924;28;20021;-74
2023/06/11 03:25:36;;;;;;;26.48;16.73;;;;;;;17.17;90.66;101285.78;5032359;28;20033;-74
2023/06/11 03:28:02;;;;;;;25.80;16.63;;;;;;;17.17;91.24;101284.91;5032490;28;20030;-74
2023/06/11 03:30:27;;;;;;;25.48;17.20;;;;;;;17.14;90.48;101280.63;5033321;28;20537;-74
2023/06/11 03:32:53;;;;;;;23.25;15.25;;;;;;;17.13;91.23;101281.66;5034374;28;20026;-74
2023/06/11 03:35:18;;;;;;;26.40;16.13;;;;;;;17.13;91.16;101287.09;5033884;28;20029;-74
2023/06/11 03:37:43;;;;;;;28.55;17.40;;;;;;;17.12;91.80;101293.50;5037880;28;20500;-74
2023/06/11 03:40:09;;;;;;;27.95;17.80;;;;;;;17.10;91.95;101281.91;5053550;28;20368;-74
2023/06/11 03:42:34;;;;;;;24.50;16.25;;;;;;;17.06;91.73;101285.94;5035824;28;20106;-74
2023/06/11 03:45:00;;;;;;;25.67;16.55;;;;;;;17.03;91.75;101284.38;5046014;28;20052;-74
2023/06/11 03:47:25;;;;;;;23.88;16.23;;;;;;;17.02;91.65;101296.22;5035391;28;20044;-74
2023/06/11 03:49:51;;;;;;;28.25;17.55;;;;;;;17.02;91.71;101298.09;5027997;28;20511;-74
2023/06/11 03:52:16;;;;;;;27.83;16.75;;;;;;;16.99;92.40;101296.50;5052745;28;20108;-74
2023/06/11 03:54:42;;;;;;;29.88;17.05;;;;;;;16.97;92.41;101290.38;5052867;28;20104;-74
2023/06/11 03:57:07;;;;;;;25.52;16.70;;;;;;;16.96;92.65;101291.38;5052089;28;20493;-74
2023/06/11 03:59:32;;;;;;;25.80;16.58;;;;;;;16.96;92.72;101296.81;5053825;28;20105;-74
2023/06/11 04:01:59;;;;;;;26.90;16.75;;;;;;;16.93;93.22;101297.09;5045675;28;20037;-74
2023/06/11 04:04:25;;;;;;;25.77;16.83;;;;;;;16.94;92.68;101302.38;5035239;28;20490;-74
2023/06/11 04:06:50;;;;;;;25.77;17.25;;;;;;;16.94;93.33;101299.66;5034571;28;20131;-74
2023/06/11 04:09:15;;;;;;;26.30;17.48;;;;;;;16.92;93.68;101301.66;5048462;28;20031;-74
2023/06/11 04:11:41;;;;;;;26.63;17.10;;;;;;;16.93;94.32;101302.53;5053351;28;20033;-74
2023/06/11 04:14:06;;;;;;;27.52;18.02;;;;;;;16.94;94.13;101301.50;5031176;28;20064;-74
2023/06/11 04:16:31;;;;;;;25.38;17.85;;;;;;;16.96;93.96;101307.66;5034049;28;20657;-74
2023/06/11 04:18:56;;;;;;;26.70;17.42;;;;;;;16.96;94.83;101302.22;5034419;28;20024;-74
2023/06/11 04:21:22;;;;;;;27.38;18.88;;;;;;;17.00;94.42;101300.06;5052309;28;20032;-74
2023/06/11 04:23:47;;;;;;;26.45;17.60;;;;;;;17.01;94.57;101308.06;5040203;28;20060;-74
2023/06/11 04:26:15;;;;;;;29.08;17.52;;;;;;;17.03;94.79;101307.94;5033280;28;20484;-74
2023/06/11 04:28:44;;;;;;;27.35;18.10;;;;;;;17.03;95.31;101308.81;5052851;28;20132;-74
2023/06/11 04:31:11;;;;;;;25.90;16.27;;;;;;;17.05;95.64;101306.78;5046743;28;20090;-74
2023/06/11 04:33:37;;;;;;;29.35;19.23;;;;;;;17.06;95.18;101303.09;5052206;28;20131;-74
2023/06/11 04:36:10;;;;;;;26.77;18.25;;;;;;;17.09;95.51;101310.09;5052651;28;20140;-74
2023/06/11 04:38:44;;;;;;;25.98;18.35;;;;;;;17.14;94.92;101309.66;5036761;28;20131;-73
2023/06/11 04:41:11;;;;;;;25.45;17.58;;;;;;;17.17;95.61;101309.38;5024376;28;20465;-74
2023/06/11 04:43:36;;;;;;;27.52;19.25;;;;;;;17.18;96.05;101301.06;5053428;28;20518;-74
2023/06/11 04:46:03;;;;;;;29.75;19.15;;;;;;;17.21;95.82;101308.09;5051732;28;20028;-74
2023/06/11 04:48:31;;;;;;;28.95;19.20;;;;;;;17.24;95.96;101310.50;5050469;28;20024;-74
2023/06/11 04:51:00;;;;;;;27.42;18.98;;;;;;;17.28;95.37;101309.22;5052675;28;20033;-74
2023/06/11 04:53:27;;;;;;;28.38;20.70;;;;;;;17.33;94.94;101303.34;5051868;28;20108;-74
2023/06/11 04:55:57;;;;;;;31.02;19.83;;;;;;;17.36;95.06;101305.75;5032936;28;20029;-74
2023/06/11 04:58:24;;;;;;;27.00;20.05;;;;;;;17.39;94.93;101302.75;5034623;28;20020;-74
2023/06/11 05:00:50;;;;;;;27.20;19.88;;;;;;;17.43;94.57;101312.34;5050654;28;20025;-74
2023/06/11 05:03:16;;;;;;;28.77;20.95;;;;;;;17.46;93.32;101304.72;5035314;28;20052;-74
2023/06/11 05:05:50;;;;;;;29.35;20.77;;;;;;;17.52;94.10;101310.59;5051952;28;20029;-74
2023/06/11 05:08:21;;;;;;;29.77;20.63;;;;;;;17.57;93.12;101303.72;5033583;28;20387;-74
2023/06/11 05:10:47;;;;;;;29.52;20.85;;;;;;;17.65;92.64;101308.41;5032098;28;20040;-74
2023/06/11 05:13:12;;;;;;;28.73;19.20;;;;;;;17.71;92.49;101312.41;5034089;28;20489;-74
2023/06/11 05:15:38;;;;;;;27.92;20.33;;;;;;;17.76;93.09;101319.13;5052889;28;20025;-74
2023/06/11 05:18:03;;;;;;;29.98;21.05;;;;;;;17.84;91.28;101320.25;5026869;28;20029;-74
2023/06/11 05:20:29;;;;;;;29.02;20.35;;;;;;;17.90;94.36;101323.22;5043105;28;20040;-74
2023/06/11 05:22:58;;;;;;;28.42;19.13;;;;;;;17.95;92.82;101317.34;5034985;28;20025;-74
2023/06/11 05:25:28;;;;;;;28.98;20.05;;;;;;;18.02;89.26;101321.19;5051596;28;20097;-74
2023/06/11 05:27:55;;;;;;;34.88;20.48;;;;;;;18.12;88.22;101322.00;5043917;28;20032;-75
2023/06/11 05:30:24;;;;;;;27.30;19.73;;;;;;;18.19;88.10;101315.97;5052016;28;20413;-75
2023/06/11 05:32:50;;;;;;;28.77;18.95;;;;;;;18.28;87.67;101326.78;5052669;28;20024;-74
2023/06/11 05:35:15;;;;;;;29.85;20.17;;;;;;;18.33;88.56;101323.59;5032213;28;20153;-74
2023/06/11 05:37:41;;;;;;;27.48;18.60;;;;;;;18.40;87.72;101324.72;5051300;28;20501;-75
2023/06/11 05:40:07;;;;;;;25.27;17.25;;;;;;;18.50;85.41;101325.50;5060071;28;20042;-74
2023/06/11 05:42:33;;;;;;;26.48;17.17;;;;;;;18.57;85.34;101325.75;5052587;28;20520;-74
2023/06/11 05:44:58;;;;;;;27.95;19.00;;;;;;;18.66;83.80;101323.97;5052592;28;20024;-74
2023/06/11 05:47:23;;;;;;;26.30;17.00;;;;;;;18.71;84.42;101320.78;5052259;28;20452;-74
2023/06/11 05:49:48;;;;;;;25.48;17.63;;;;;;;18.81;84.14;101321.56;5050899;28;20025;-74
2023/06/11 05:52:14;;;;;;;23.65;16.02;;;;;;;18.88;83.59;101322.69;5050777;28;20040;-74
2023/06/11 05:54:39;;;;;;;27.15;16.20;;;;;;;18.99;83.15;101324.31;5032871;28;20051;-74
2023/06/11 05:57:08;;;;;;;24.92;16.38;;;;;;;19.08;82.11;101317.97;5048222;28;20047;-74
2023/06/11 05:59:33;;;;;;;26.80;16.90;;;;;;;19.14;82.43;101320.03;5029565;28;20043;-74
2023/06/11 06:01:58;;;;;;;23.95;14.75;;;;;;;19.22;81.39;101319.25;5026799;28;20028;-74
2023/06/11 06:04:24;;;;;;;24.90;15.38;;;;;;;19.35;78.95;101316.97;5035511;28;20115;-75
2023/06/11 06:06:49;;;;;;;23.05;12.88;;;;;;;19.44;80.93;101319.75;5032908;28;20021;-74
2023/06/11 06:09:15;;;;;;;23.65;14.55;;;;;;;19.47;81.41;101320.28;5051587;28;20036;-75
2023/06/11 06:11:40;;;;;;;24.25;13.63;;;;;;;19.60;78.46;101327.19;5051262;28;20360;-74
2023/06/11 06:14:06;;;;;;;26.05;14.57;;;;;;;19.72;77.30;101323.19;5050618;28;20017;-74
2023/06/11 06:16:31;;;;;;;22.67;13.73;;;;;;;19.80;77.26;101334.19;5028786;28;20028;-74
2023/06/11 06:18:56;;;;;;;21.70;12.52;;;;;;;19.85;77.35;101328.22;5030423;28;20124;-74
2023/06/11 06:21:22;;;;;;;23.10;12.45;;;;;;;19.86;75.99;101328.06;5048370;28;20040;-72
2023/06/11 06:23:47;;;;;;;23.00;12.48;;;;;;;19.97;76.60;101334.25;5054387;28;20029;-73
2023/06/11 06:26:13;;;;;;;22.23;13.27;;;;;;;19.97;79.34;101328.81;5036518;28;20037;-73
2023/06/11 06:28:38;;;;;;;22.17;13.57;;;;;;;20.04;76.59;101329.88;5057332;28;20031;-72
2023/06/11 06:31:07;;;;;;;22.52;12.75;;;;;;;20.11;76.15;101332.81;5044484;28;20056;-73
2023/06/11 06:33:35;;;;;;;22.40;12.52;;;;;;;20.21;75.91;101333.53;5060345;28;20059;-72
2023/06/11 06:36:02;;;;;;;21.88;12.90;;;;;;;20.29;73.56;101338.16;5057699;28;20032;-73
2023/06/11 06:38:28;;;;;;;20.67;11.35;;;;;;;20.33;75.43;101336.81;5059667;28;20118;-73
2023/06/11 06:40:53;;;;;;;22.02;12.07;;;;;;;20.34;73.14;101336.66;5050025;28;20057;-73
2023/06/11 06:43:18;;;;;;;20.30;11.85;;;;;;;20.42;74.70;101335.81;5060285;28;20036;-73
2023/06/11 06:45:43;;;;;;;21.13;12.68;;;;;;;20.51;73.84;101340.28;5058644;28;20021;-73
2023/06/11 06:48:09;;;;;;;22.05;12.52;;;;;;;20.66;72.31;101342.38;5057132;28;20036;-74
2023/06/11 06:50:34;;;;;;;20.77;12.23;;;;;;;20.68;71.82;101337.66;5037458;28;20036;-73
2023/06/11 06:53:00;;;;;;;23.20;12.27;;;;;;;20.79;72.20;101345.50;5039657;28;20029;-73
2023/06/11 06:55:25;;;;;;;23.25;12.00;;;;;;;20.85;72.38;101338.53;5043986;28;20025;-73
2023/06/11 06:57:50;;;;;;;21.23;11.55;;;;;;;20.84;72.82;101343.13;5042922;28;20029;-73
2023/06/11 07:00:17;;;;;;;21.55;11.57;;;;;;;20.96;74.01;101332.75;5041427;28;20017;-73
2023/06/11 07:02:42;;;;;;;22.00;11.55;;;;;;;21.10;72.00;101337.53;5059277;28;20032;-74
2023/06/11 07:05:08;;;;;;;21.83;11.02;;;;;;;21.15;71.40;101339.75;5059781;28;20084;-73
2023/06/11 07:07:33;;;;;;;21.95;11.88;;;;;;;21.23;71.32;101338.88;5057910;28;20048;-74
2023/06/11 07:09:58;;;;;;;22.27;12.15;;;;;;;21.27;70.57;101335.69;5031268;28;20141;-73
2023/06/11 07:12:24;;;;;;;22.60;11.80;;;;;;;21.27;70.12;101343.88;5032755;28;20025;-73
2023/06/11 07:14:49;;;;;;;21.63;12.38;;;;;;;21.40;69.80;101343.34;5041377;28;20354;-73
2023/06/11 07:17:15;;;;;;;23.17;11.82;;;;;;;21.43;71.83;101342.13;5055966;28;20036;-73
2023/06/11 07:19:40;;;;;;;20.88;11.65;;;;;;;21.50;71.98;101343.16;5059069;28;20108;-74
2023/06/11 07:22:06;;;;;;;20.55;10.95;;;;;;;21.51;72.24;101338.56;5033747;28;20198;-73
2023/06/11 07:24:31;;;;;;;23.20;12.02;;;;;;;21.55;70.93;101335.31;5062804;28;20021;-75
2023/06/11 07:26:56;;;;;;;22.58;11.75;;;;;;;21.56;72.00;101337.03;5062239;28;20033;-74
2023/06/11 07:29:22;;;;;;;23.10;11.63;;;;;;;21.62;70.85;101333.59;5041674;28;20029;-73
2023/06/11 07:31:47;;;;;;;22.20;11.20;;;;;;;21.70;69.61;101337.34;5060497;28;20060;-73
2023/06/11 07:34:13;;;;;;;21.15;11.75;;;;;;;21.70;70.89;101345.56;5043828;28;20040;-73
2023/06/11 07:36:38;;;;;;;20.83;11.25;;;;;;;21.80;71.32;101341.63;5068450;28;20029;-73
2023/06/11 07:39:03;;;;;;;22.42;11.60;;;;;;;21.96;69.43;101337.97;5066240;28;20052;-73
2023/06/11 07:41:29;;;;;;;20.15;11.23;;;;;;;21.99;70.28;101336.75;5048602;28;20033;-74
2023/06/11 07:43:54;;;;;;;22.20;11.50;;;;;;;22.09;70.25;101337.41;5066230;28;20039;-74
2023/06/11 07:46:20;;;;;;;20.75;11.43;;;;;;;22.10;69.18;101339.13;5064984;28;20088;-73
2023/06/11 07:48:47;;;;;;;21.77;11.32;;;;;;;22.08;69.57;101335.72;5051482;28;20036;-74
2023/06/11 07:51:14;;;;;;;21.35;10.75;;;;;;;22.05;70.09;101336.06;5050918;28;20017;-74
2023/06/11 07:53:40;;;;;;;21.63;11.43;;;;;;;22.04;70.67;101337.09;5049989;28;20457;-74
2023/06/11 07:56:06;;;;;;;19.95;10.68;;;;;;;22.14;68.31;101340.47;5065387;28;20097;-74
2023/06/11 07:58:31;;;;;;;21.15;11.88;;;;;;;22.26;67.96;101342.84;5050097;28;20029;-76
2023/06/11 08:00:56;;;;;;;20.73;10.25;;;;;;;22.31;69.52;101341.28;5068344;28;20028;-75
2023/06/11 08:03:22;;;;;;;20.48;10.45;;;;;;;22.28;68.76;101341.59;5053117;28;20010;-74
2023/06/11 08:05:47;;;;;;;21.35;11.38;;;;;;;22.42;66.89;101348.25;5051502;28;20087;-76
2023/06/11 08:08:12;;;;;;;19.92;10.48;;;;;;;22.49;67.26;101345.66;5071754;28;20126;-74
2023/06/11 08:10:38;;;;;;;20.20;11.63;;;;;;;22.57;69.15;101340.13;5067178;28;20024;-76
2023/06/11 08:13:03;;;;;;;22.10;11.65;;;;;;;22.58;67.65;101336.38;5051477;28;20043;-76
2023/06/11 08:15:30;;;;;;;18.73;10.07;;;;;;;22.63;66.99;101341.31;5056852;28;20060;-73
2023/06/11 08:17:55;;;;;;;20.25;10.45;;;;;;;22.65;68.12;101334.63;5062409;28;20080;-73
2023/06/11 08:20:21;;;;;;;20.42;10.88;;;;;;;22.72;67.13;101347.59;5064748;28;20075;-73
2023/06/11 08:22:46;;;;;;;19.88;9.75;;;;;;;22.65;67.58;101336.47;5064256;28;20033;-73
2023/06/11 08:25:11;;;;;;;21.58;11.27;;;;;;;22.75;68.84;101341.75;5051975;28;20037;-76
2023/06/11 08:27:37;;;;;;;22.00;11.30;;;;;;;22.79;66.28;101338.47;5069819;28;20060;-76
2023/06/11 08:30:03;;;;;;;20.13;10.93;;;;;;;22.87;66.26;101334.81;5050591;28;20066;-76
2023/06/11 08:32:29;;;;;;;21.90;11.90;;;;;;;22.97;66.92;101324.47;5056076;28;20032;-77
2023/06/11 08:34:54;;;;;;;19.60;10.77;;;;;;;23.04;67.14;101328.16;5052971;28;20037;-76
2023/06/11 08:37:20;;;;;;;24.30;11.48;;;;;;;23.15;65.35;101337.03;5070927;28;20036;-76
2023/06/11 08:39:45;;;;;;;21.90;11.52;;;;;;;23.25;64.16;101326.69;5063682;28;20160;-77
2023/06/11 08:42:11;;;;;;;19.85;10.95;;;;;;;23.33;65.37;101326.59;5063497;28;20056;-75
2023/06/11 08:44:36;;;;;;;20.15;10.98;;;;;;;23.36;63.78;101323.47;5068128;28;20029;-75
2023/06/11 08:47:04;;;;;;;20.42;11.10;;;;;;;23.50;63.99;101323.69;5072402;28;20039;-76
2023/06/11 08:49:30;;;;;;;20.17;10.52;;;;;;;23.60;62.43;101321.53;5051476;28;20044;-77
2023/06/11 08:52:01;;;;;;;21.50;11.27;;;;;;;23.73;62.00;101324.50;5048515;28;20013;-75
2023/06/11 08:54:27;;;;;;;20.83;11.25;;;;;;;23.80;60.92;101321.84;5054635;28;20025;-76
2023/06/11 08:56:53;;;;;;;19.50;10.25;;;;;;;23.79;62.13;101319.28;5053060;28;20020;-76
2023/06/11 08:59:19;;;;;;;20.10;10.05;;;;;;;23.87;63.23;101316.50;5053040;28;20100;-75
2023/06/11 09:01:50;;;;;;;19.38;9.80;;;;;;;23.84;63.01;101317.69;5036328;28;20083;-76
2023/06/11 09:04:16;;;;;;;19.00;10.13;;;;;;;23.94;62.14;101311.94;5053455;28;20036;-76
2023/06/11 09:06:52;;;;;;;21.20;11.13;;;;;;;24.01;62.38;101317.50;5054885;28;20028;-77
2023/06/11 09:09:18;;;;;;;20.08;10.63;;;;;;;24.00;61.77;101310.31;5064509;28;20012;-76
2023/06/11 09:11:45;;;;;;;21.20;10.48;;;;;;;24.15;60.06;101313.06;5059964;28;20045;-76
2023/06/11 09:14:10;;;;;;;20.17;9.75;;;;;;;24.20;60.63;101313.34;5055788;28;20037;-75
2023/06/11 09:16:41;;;;;;;18.48;9.18;;;;;;;24.15;61.80;101313.06;5054370;28;20016;-76
2023/06/11 09:19:19;;;;;;;22.42;11.35;;;;;;;24.19;63.47;101315.25;5068121;28;20085;-76
2023/06/11 09:21:47;;;;;;;20.17;10.50;;;;;;;24.30;61.06;101308.41;5052029;28;20035;-74
2023/06/11 09:24:13;;;;;;;20.00;10.63;;;;;;;24.28;62.05;101307.75;5049137;28;20064;-74
2023/06/11 09:26:38;;;;;;;19.70;9.45;;;;;;;24.36;60.29;101307.63;5044010;28;20428;-73
2023/06/11 09:29:05;;;;;;;19.65;9.73;;;;;;;24.38;59.76;101302.78;5034190;28;20044;-74
2023/06/11 09:31:30;;;;;;;19.33;9.60;;;;;;;24.26;61.64;101307.06;5023916;28;20036;-73
2023/06/11 09:34:02;;;;;;;20.52;10.73;;;;;;;24.38;60.81;101305.53;5045658;28;20033;-73
2023/06/11 09:36:27;;;;;;;18.75;9.57;;;;;;;24.46;61.17;101312.81;5041411;28;20052;-74
2023/06/11 09:38:52;;;;;;;18.33;8.95;;;;;;;24.46;59.24;101307.31;5027637;28;20081;-74
2023/06/11 09:41:18;;;;;;;21.42;11.18;;;;;;;24.52;59.92;101314.78;5029464;28;20033;-73
2023/06/11 09:43:44;;;;;;;19.30;9.75;;;;;;;24.54;60.57;101315.47;5029197;28;20064;-73
2023/06/11 09:46:10;;;;;;;20.33;9.57;;;;;;;24.66;58.55;101317.72;5034853;28;20483;-73
2023/06/11 09:48:36;;;;;;;18.23;9.48;;;;;;;24.74;60.02;101315.69;5024790;28;20478;-75
2023/06/11 09:51:02;;;;;;;19.35;10.57;;;;;;;24.83;59.27;101316.41;5025258;28;20187;-73
2023/06/11 09:53:29;;;;;;;19.23;9.57;;;;;;;24.77;59.82;101320.81;5030846;28;20017;-74
2023/06/11 09:55:55;;;;;;;17.60;9.27;;;;;;;24.79;58.21;101317.88;5030877;28;20116;-71
2023/06/11 09:58:22;;;;;;;19.77;9.10;;;;;;;24.77;59.05;101320.81;5030237;28;20028;-73
2023/06/11 10:00:58;;;;;;;21.23;9.80;;;;;;;24.75;58.26;101322.06;5028082;28;20030;-73
2023/06/11 10:03:23;;;;;;;23.55;9.05;;;;;;;24.74;58.10;101317.59;5027812;28;20033;-73
2023/06/11 10:05:49;;;;;;;19.85;9.45;;;;;;;24.87;57.69;101314.13;5029839;28;20603;-74
2023/06/11 10:08:35;;;;;;;20.67;10.05;;;;;;;24.82;57.82;101317.47;5031666;28;20025;-73
2023/06/11 10:11:03;;;;;;;20.42;10.75;;;;;;;24.99;54.31;101315.31;5035213;28;20116;-73
2023/06/11 10:13:29;;;;;;;19.80;9.40;;;;;;;25.06;54.40;101320.88;5032383;28;20033;-73
2023/06/11 10:16:03;;;;;;;20.00;10.32;;;;;;;25.17;51.99;101322.25;5027785;28;20040;-73
2023/06/11 10:18:30;;;;;;;22.70;12.35;;;;;;;25.04;55.52;101314.75;5028116;28;20025;-74
2023/06/11 10:21:01;;;;;;;19.27;9.73;;;;;;;25.27;51.35;101331.00;5035211;28;20029;-74
2023/06/11 10:23:42;;;;;;;23.35;11.57;;;;;;;25.29;54.30;101315.16;5034042;28;20108;-73
2023/06/11 10:26:11;;;;;;;19.90;9.60;;;;;;;25.39;56.68;101307.44;5024971;28;20044;-73
2023/06/11 10:28:37;;;;;;;;;;;;;;;25.32;55.32;101301.03;5033579;28;20084;-74
2023/06/11 10:31:04;;;;;;;18.52;9.30;;;;;;;25.40;53.56;101308.28;5026802;28;19966;-74
2023/06/11 10:33:44;;;;;;;19.90;10.57;;;;;;;25.44;53.99;101310.44;5024621;28;20068;-75
2023/06/11 10:36:20;;;;;;;18.98;9.32;;;;;;;25.57;50.77;101303.34;5030056;28;20029;-71
2023/06/11 10:38:45;;;;;;;20.45;9.43;;;;;;;25.60;53.49;101294.69;5038127;28;20057;-70
2023/06/11 10:41:11;;;;;;;19.90;9.65;;;;;;;25.43;55.66;101303.25;5046793;28;20052;-73
2023/06/11 10:43:38;;;;;;;22.13;10.57;;;;;;;25.48;54.72;101305.41;5030120;28;20028;-72
2023/06/11 10:46:06;;;;;;;21.63;10.18;;;;;;;25.68;52.35;101302.78;5027283;28;20679;-71
2023/06/11 10:48:32;;;;;;;18.83;9.27;;;;;;;25.84;53.94;101298.84;5049638;28;20413;-71
2023/06/11 10:51:08;;;;;;;18.70;9.18;;;;;;;25.69;51.74;101300.88;5028790;28;20036;-75
2023/06/11 10:53:37;;;;;;;17.45;8.65;;;;;;;25.68;53.48;101305.53;5027735;28;20353;-72
2023/06/11 10:56:03;;;;;;;18.17;9.00;;;;;;;25.75;51.34;101306.41;5021222;28;20148;-73
2023/06/11 10:58:29;;;;;;;20.58;9.15;;;;;;;25.73;50.84;101305.78;5046224;28;20211;-73
2023/06/11 11:00:55;;;;;;;20.27;9.23;;;;;;;25.74;51.90;101304.75;5030180;28;20032;-72
2023/06/11 11:03:21;;;;;;;19.92;8.90;;;;;;;25.80;51.68;101298.41;5025329;28;20388;-73
2023/06/11 11:05:49;;;;;;;19.63;9.60;;;;;;;25.81;51.21;101300.13;5049671;28;20131;-73
2023/06/11 11:08:15;;;;;;;18.37;9.07;;;;;;;25.85;50.19;101308.81;5030216;28;20064;-72